Time;durP1;ratioP1;P1;durP2;ratioP2;P2;SDS_P1;SDS_P2;PMS_P1;PMS_P2;Temp;Humidity;BMP_temperature;BMP_pressure;BME280_temperature;BME280_humidity;BME280_pressure;Samples;Min_cycle;Max_cycle;Signal;HPM_P1;HPM_P2
2021/11/12 00:03:48;;;;;;;3.73;3.43;;;10.90;91.40;;;;;;4980229;28;20248;-83
2021/11/12 00:14:47;;;;;;;4.03;2.60;;;10.80;91.50;;;;;;4977169;28;20236;-83
2021/11/12 00:17:21;;;;;;;5.60;3.03;;;10.80;91.60;;;;;;4983927;28;20212;-83
2021/11/12 00:19:50;;;;;;;3.33;3.03;;;10.70;91.50;;;;;;4983300;28;20246;-83
2021/11/12 00:22:20;;;;;;;6.90;3.90;;;10.70;91.60;;;;;;5011513;28;20223;-83
2021/11/12 00:24:47;;;;;;;2.63;2.33;;;10.70;91.60;;;;;;5011820;28;20212;-83
2021/11/12 00:27:15;;;;;;;6.60;3.63;;;10.60;91.60;;;;;;5003221;28;20216;-83
2021/11/12 00:29:53;;;;;;;3.73;1.93;;;10.70;91.70;;;;;;5008726;28;20216;-83
2021/11/12 00:40:17;;;;;;;2.57;2.47;;;10.50;91.70;;;;;;5005474;28;20263;-82
2021/11/12 00:45:36;;;;;;;2.57;2.47;;;10.50;91.80;;;;;;5008551;28;20630;-82
2021/11/12 00:55:45;;;;;;;7.00;3.27;;;10.50;91.90;;;;;;5011160;28;20211;-83
2021/11/12 00:58:15;;;;;;;2.63;2.07;;;10.50;91.90;;;;;;4990999;28;20207;-82
2021/11/12 01:00:44;;;;;;;1.37;1.37;;;10.50;91.90;;;;;;4998076;28;20223;-83
2021/11/12 01:03:12;;;;;;;3.70;3.37;;;10.50;91.90;;;;;;4993920;28;20307;-83
2021/11/12 01:05:40;;;;;;;1.13;1.13;;;10.50;91.80;;;;;;4994204;28;20216;-82
2021/11/12 01:08:12;;;;;;;2.00;1.90;;;10.40;91.80;;;;;;4997480;28;20227;-83
2021/11/12 01:10:40;;;;;;;4.67;2.50;;;10.40;91.90;;;;;;5012508;28;20204;-83
2021/11/12 01:13:07;;;;;;;1.63;1.53;;;10.40;91.90;;;;;;4996680;28;20239;-83
2021/11/12 01:15:53;;;;;;;5.40;2.93;;;10.40;92.00;;;;;;5008001;28;20212;-83
2021/11/12 01:18:21;;;;;;;1.13;1.03;;;10.40;92.00;;;;;;5008353;28;20251;-83
2021/11/12 01:20:49;;;;;;;2.27;2.07;;;10.40;92.00;;;;;;4989478;28;20645;-83
2021/11/12 01:23:17;;;;;;;8.93;3.33;;;10.40;92.00;;;;;;4989545;28;20213;-82
2021/11/12 01:25:45;;;;;;;5.57;2.37;;;10.40;92.00;;;;;;5006872;28;20212;-82
2021/11/12 01:28:13;;;;;;;7.57;4.07;;;10.40;92.00;;;;;;5008091;28;20556;-83
2021/11/12 01:30:40;;;;;;;5.30;2.00;;;10.40;92.00;;;;;;5015269;28;20212;-82
2021/11/12 01:33:07;;;;;;;5.83;4.20;;;10.30;92.00;;;;;;4996748;28;20240;-83
2021/11/12 01:35:36;;;;;;;7.40;3.10;;;10.30;92.10;;;;;;5007622;28;20204;-83
2021/11/12 01:38:04;;;;;;;4.60;2.13;;;10.30;92.10;;;;;;4994971;28;20219;-83
2021/11/12 01:40:31;;;;;;;3.20;2.00;;;10.30;92.20;;;;;;5006626;28;20212;-83
2021/11/12 01:56:45;;;;;;;5.20;3.93;;;10.20;92.40;;;;;;5009907;28;20223;-83
2021/11/12 01:59:15;;;;;;;3.70;2.67;;;10.20;92.40;;;;;;4992794;28;20219;-83
2021/11/12 02:01:59;;;;;;;2.23;2.13;;;10.20;92.40;;;;;;5009660;28;20222;-83
2021/11/12 02:04:29;;;;;;;5.00;2.70;;;10.10;92.30;;;;;;4995545;28;20220;-83
2021/11/12 02:06:58;;;;;;;5.00;2.50;;;10.10;92.30;;;;;;4992694;28;20220;-83
2021/11/12 02:09:27;;;;;;;2.57;2.37;;;10.10;92.30;;;;;;5007556;28;20227;-83
2021/11/12 02:12:05;;;;;;;2.60;1.90;;;10.10;92.30;;;;;;4988944;28;20469;-83
2021/11/12 02:14:33;;;;;;;2.20;2.10;;;10.00;92.30;;;;;;5007698;28;20231;-83
2021/11/12 02:17:13;;;;;;;2.67;2.47;;;10.00;92.40;;;;;;4986169;28;20592;-83
2021/11/12 02:20:11;;;;;;;8.93;3.93;;;10.00;92.40;;;;;;5003814;28;20208;-84
2021/11/12 02:22:36;;;;;;;2.90;1.67;;;9.90;92.30;;;;;;5003153;28;20662;-83
2021/11/12 02:25:13;;;;;;;5.10;1.63;;;9.90;92.30;;;;;;5003936;28;20224;-83
2021/11/12 02:27:56;;;;;;;6.40;3.23;;;9.80;92.30;;;;;;5013609;28;20215;-83
2021/11/12 02:30:27;;;;;;;3.23;3.03;;;9.80;92.50;;;;;;4991797;28;20215;-83
2021/11/12 02:33:07;;;;;;;0.90;0.90;;;9.70;92.30;;;;;;4992508;28;20672;-83
2021/11/12 02:35:37;;;;;;;1.80;1.70;;;9.70;92.30;;;;;;5006270;28;20219;-83
2021/11/12 02:38:06;;;;;;;1.70;1.60;;;9.70;92.40;;;;;;4995721;28;20212;-84
2021/11/12 02:40:34;;;;;;;1.13;1.10;;;9.60;92.40;;;;;;4994109;28;20216;-84
2021/11/12 02:43:02;;;;;;;1.50;1.43;;;9.60;92.50;;;;;;4990244;28;20208;-83
2021/11/12 02:45:30;;;;;;;4.67;1.63;;;9.60;92.50;;;;;;4991869;28;20208;-84
2021/11/12 02:47:57;;;;;;;1.20;1.10;;;9.60;92.50;;;;;;4988277;28;20275;-83
2021/11/12 02:50:24;;;;;;;0.67;0.67;;;9.60;92.50;;;;;;4999188;28;20208;-83
2021/11/12 02:52:58;;;;;;;1.57;1.47;;;9.60;92.40;;;;;;5005494;28;20212;-84
2021/11/12 02:55:26;;;;;;;5.33;2.10;;;9.60;92.40;;;;;;4987928;28;20274;-83
2021/11/12 02:57:53;;;;;;;0.97;0.97;;;9.60;92.40;;;;;;5007800;28;20216;-83
2021/11/12 03:00:24;;;;;;;2.67;1.77;;;9.50;92.40;;;;;;5018440;28;20208;-83
2021/11/12 03:02:54;;;;;;;2.13;1.73;;;9.60;92.50;;;;;;4988807;28;20291;-83
2021/11/12 03:05:24;;;;;;;4.27;1.13;;;9.50;92.40;;;;;;5005922;28;20318;-83
2021/11/12 03:07:51;;;;;;;1.17;1.07;;;9.50;92.40;;;;;;4989592;28;20220;-85
2021/11/12 03:10:18;;;;;;;6.17;2.60;;;9.50;92.40;;;;;;4988462;28;20226;-83
2021/11/12 03:12:46;;;;;;;1.30;1.30;;;9.50;92.30;;;;;;5006839;28;20216;-84
2021/11/12 03:15:13;;;;;;;2.53;2.17;;;9.50;92.30;;;;;;4991763;28;20231;-83
2021/11/12 03:17:44;;;;;;;0.73;0.73;;;9.50;92.30;;;;;;4988627;28;20216;-83
2021/11/12 03:20:13;;;;;;;2.13;2.00;;;9.50;92.30;;;;;;4990842;28;20232;-83
2021/11/12 03:22:48;;;;;;;1.23;1.13;;;9.50;92.40;;;;;;5003716;28;20209;-83
2021/11/12 05:02:56;;;;;;;2.97;2.00;;;9.40;92.40;;;;;;4968620;28;20283;-83
2021/11/12 05:51:03;;;;;;;0.87;0.87;;;8.80;92.40;;;;;;5008417;28;20209;-83
2021/11/12 05:56:16;;;;;;;1.37;1.27;;;8.80;92.40;;;;;;5011708;28;20204;-83
2021/11/12 05:58:44;;;;;;;4.33;2.27;;;8.80;92.40;;;;;;5008527;28;20364;-83
2021/11/12 06:01:14;;;;;;;1.03;0.93;;;8.80;92.50;;;;;;4992030;28;20235;-83
2021/11/12 06:03:41;;;;;;;1.30;1.20;;;8.80;92.50;;;;;;5005493;28;20657;-83
2021/11/12 06:06:11;;;;;;;0.53;0.53;;;8.80;92.50;;;;;;5006225;28;20208;-83
2021/11/12 06:08:41;;;;;;;1.93;1.83;;;8.80;92.50;;;;;;4994513;28;20216;-83
2021/11/12 06:11:27;;;;;;;0.60;0.60;;;8.80;92.50;;;;;;5000909;28;20216;-83
2021/11/12 06:13:58;;;;;;;1.20;0.63;;;8.90;92.50;;;;;;5010616;28;20322;-83
2021/11/12 06:16:26;;;;;;;3.03;1.13;;;8.90;92.50;;;;;;4988298;28;20560;-84
2021/11/12 06:18:54;;;;;;;5.40;2.17;;;8.90;92.50;;;;;;4995407;28;20211;-83
2021/11/12 06:21:26;;;;;;;0.63;0.63;;;8.90;92.50;;;;;;4991080;28;20205;-84
2021/11/12 06:23:54;;;;;;;1.80;1.40;;;8.90;92.50;;;;;;4996117;28;20215;-83
2021/11/12 06:26:22;;;;;;;0.87;0.87;;;8.90;92.50;;;;;;4992938;28;20277;-84
2021/11/12 06:28:53;;;;;;;1.40;1.30;;;8.90;92.50;;;;;;4988839;28;20239;-84
2021/11/12 06:31:58;;;;;;;3.97;1.60;;;9.00;92.50;;;;;;5003600;28;20211;-83
2021/11/12 06:34:35;;;;;;;3.73;1.97;;;9.00;92.50;;;;;;5009709;28;20232;-84
2021/11/12 06:37:03;;;;;;;2.93;2.73;;;9.00;92.40;;;;;;4984300;28;20252;-83
2021/11/12 06:39:48;;;;;;;1.40;1.40;;;9.10;92.40;;;;;;4991530;28;20279;-83
2021/11/12 06:42:29;;;;;;;4.80;1.70;;;9.10;92.40;;;;;;4989246;28;20216;-84
2021/11/12 06:51:23;;;;;;;1.30;1.20;;;9.30;92.30;;;;;;5014612;28;20219;-83
2021/11/12 06:53:59;;;;;;;5.10;1.37;;;9.40;92.40;;;;;;4996957;28;20212;-83
2021/11/12 06:56:29;;;;;;;1.10;1.10;;;9.40;92.50;;;;;;4993558;28;20212;-83
2021/11/12 06:58:57;;;;;;;1.93;1.83;;;9.50;92.50;;;;;;4993504;28;20220;-83
2021/11/12 07:01:25;;;;;;;1.50;0.97;;;9.50;92.50;;;;;;4994860;28;20219;-84
2021/11/12 07:04:03;;;;;;;1.90;1.80;;;9.60;92.60;;;;;;4992084;28;20649;-83
2021/11/12 07:06:46;;;;;;;2.57;1.67;;;9.60;92.60;;;;;;4989038;28;20616;-83
2021/11/12 07:09:31;;;;;;;0.90;0.90;;;9.70;92.60;;;;;;5009284;28;20299;-82
2021/11/12 07:12:11;;;;;;;1.50;0.87;;;9.80;92.50;;;;;;4996794;28;20530;-82
2021/11/12 07:14:45;;;;;;;0.90;0.90;;;9.80;92.40;;;;;;4994713;28;20258;-82
2021/11/12 07:17:21;;;;;;;0.93;0.93;;;9.90;92.40;;;;;;4994600;28;20223;-82
2021/11/12 07:19:54;;;;;;;6.50;2.77;;;9.90;92.40;;;;;;4989636;28;20211;-82
2021/11/12 07:22:24;;;;;;;0.77;0.77;;;10.00;92.40;;;;;;5013574;28;20220;-82
2021/11/12 07:24:58;;;;;;;2.97;2.37;;;10.00;92.40;;;;;;5009756;28;20258;-82
2021/11/12 07:27:26;;;;;;;3.50;2.53;;;9.90;92.40;;;;;;4989621;28;20270;-82
2021/11/12 07:30:14;;;;;;;2.60;1.57;;;9.90;92.50;;;;;;4990494;28;20208;-82
2021/11/12 07:32:52;;;;;;;5.17;2.10;;;10.00;92.50;;;;;;4991606;28;20251;-81
2021/11/12 07:35:29;;;;;;;1.53;1.43;;;10.10;92.50;;;;;;4994379;28;20246;-82
2021/11/12 07:38:12;;;;;;;3.63;3.33;;;10.20;92.50;;;;;;5006003;28;20239;-82
2021/11/12 07:49:06;;;;;;;2.63;1.20;;;10.60;92.40;;;;;;5011831;28;20255;-82
2021/11/12 07:51:50;;;;;;;1.80;1.57;;;10.70;92.30;;;;;;4995137;28;20212;-82
2021/11/12 07:54:32;;;;;;;0.20;0.20;;;10.80;92.20;;;;;;5007519;28;20219;-82
2021/11/12 07:57:05;;;;;;;2.87;2.67;;;10.90;92.10;;;;;;4991776;28;20243;-82
2021/11/12 07:59:36;;;;;;;2.30;2.10;;;11.00;92.00;;;;;;4988625;28;20219;-82
2021/11/12 08:02:06;;;;;;;1.13;1.07;;;11.10;92.00;;;;;;4992162;28;20232;-82
2021/11/12 08:04:36;;;;;;;2.83;2.63;;;11.10;92.00;;;;;;4992245;28;20222;-82
2021/11/12 08:07:06;;;;;;;3.17;1.77;;;11.20;92.00;;;;;;4996100;28;20666;-82
2021/11/12 08:09:51;;;;;;;1.37;1.33;;;11.30;91.90;;;;;;4991101;28;20208;-81
2021/11/12 08:12:26;;;;;;;1.90;1.80;;;11.30;91.80;;;;;;5010600;28;20214;-82
2021/11/12 08:21:08;;;;;;;2.47;1.73;;;11.50;91.80;;;;;;4968087;28;20234;-82
2021/11/12 08:27:07;;;;;;;2.67;2.43;;;11.80;91.80;;;;;;4998453;28;20641;-82
2021/11/12 08:32:40;;;;;;;1.30;1.20;;;12.10;91.70;;;;;;5006803;28;20299;-82
2021/11/12 08:43:21;;;;;;;2.53;2.30;;;12.90;91.10;;;;;;5005494;28;20299;-82
2021/11/12 08:48:23;;;;;;;2.47;1.97;;;13.10;90.70;;;;;;5013329;28;20271;-82
2021/11/12 08:50:56;;;;;;;2.23;2.03;;;13.10;90.60;;;;;;4996089;28;20215;-81
2021/11/12 08:53:27;;;;;;;2.00;1.90;;;13.20;90.50;;;;;;4994261;28;20220;-82
2021/11/12 08:56:00;;;;;;;3.80;3.00;;;13.30;90.50;;;;;;4999783;28;20232;-82
2021/11/12 08:58:28;;;;;;;1.23;1.23;;;13.40;90.40;;;;;;4990002;28;20212;-82
2021/11/12 09:00:56;;;;;;;2.17;1.97;;;13.40;90.30;;;;;;4995274;28;20212;-82
2021/11/12 09:03:23;;;;;;;8.37;2.20;;;13.50;90.20;;;;;;5012142;28;20211;-82
2021/11/12 09:05:51;;;;;;;0.93;0.93;;;13.60;90.20;;;;;;5000183;28;20207;-82
2021/11/12 09:08:19;;;;;;;2.37;2.27;;;13.70;90.10;;;;;;5012355;28;20212;-82
2021/11/12 09:10:46;;;;;;;0.63;0.63;;;13.80;90.00;;;;;;4992813;28;20208;-82
2021/11/12 09:13:20;;;;;;;2.53;2.33;;;13.80;90.00;;;;;;5019696;28;20238;-82
2021/11/12 09:15:58;;;;;;;1.93;1.83;;;13.80;90.00;;;;;;4999133;28;20245;-82
2021/11/12 09:18:26;;;;;;;4.80;2.00;;;13.80;89.90;;;;;;4993972;28;20642;-82
2021/11/12 09:20:54;;;;;;;1.80;1.70;;;13.70;89.80;;;;;;4994077;28;20212;-82
2021/11/12 09:23:22;;;;;;;3.10;1.70;;;13.70;89.80;;;;;;5011266;28;20208;-82
2021/11/12 09:25:50;;;;;;;1.37;1.30;;;13.70;89.70;;;;;;5010751;28;20243;-82
2021/11/12 09:28:18;;;;;;;2.20;1.90;;;13.60;89.10;;;;;;4995573;28;20295;-82
2021/11/12 09:30:45;;;;;;;3.37;2.87;;;13.60;89.20;;;;;;5013263;28;20228;-82
2021/11/12 09:33:13;;;;;;;5.30;4.33;;;13.50;89.20;;;;;;4994626;28;20614;-82
2021/11/12 09:35:41;;;;;;;4.60;4.10;;;13.50;89.40;;;;;;4984147;28;20223;-83
2021/11/12 09:38:09;;;;;;;4.20;3.80;;;13.50;89.70;;;;;;4992204;28;20212;-83
2021/11/12 09:40:36;;;;;;;2.93;2.73;;;13.50;89.70;;;;;;5014720;28;20219;-83
2021/11/12 09:43:04;;;;;;;3.77;2.97;;;13.60;89.50;;;;;;4991550;28;20219;-83
2021/11/12 09:45:32;;;;;;;3.10;2.90;;;13.60;89.50;;;;;;5014294;28;20308;-83
2021/11/12 09:47:59;;;;;;;1.40;1.30;;;13.70;89.60;;;;;;5010705;28;20266;-82
2021/11/12 09:50:31;;;;;;;6.20;2.93;;;13.90;89.50;;;;;;4995004;28;20278;-83
2021/11/12 09:53:05;;;;;;;2.37;1.73;;;14.10;89.00;;;;;;4995073;28;20219;-82
2021/11/12 09:55:41;;;;;;;2.33;1.17;;;14.20;88.50;;;;;;5011994;28;20243;-82
2021/11/12 09:58:10;;;;;;;3.73;2.37;;;14.30;88.40;;;;;;4989717;28;20666;-83
2021/11/12 10:00:41;;;;;;;4.57;2.30;;;14.40;88.30;;;;;;4984016;28;20618;-82
2021/11/12 10:03:10;;;;;;;8.43;5.13;;;14.50;88.00;;;;;;5006190;28;20226;-83
2021/11/12 10:05:46;;;;;;;2.70;2.50;;;14.60;87.30;;;;;;4995592;28;20224;-83
2021/11/12 10:08:26;;;;;;;7.00;3.73;;;14.70;87.10;;;;;;5004238;28;20227;-82
2021/11/12 10:10:56;;;;;;;2.73;2.53;;;14.80;86.90;;;;;;4995983;28;20220;-83
2021/11/12 10:13:33;;;;;;;7.23;3.00;;;14.90;86.60;;;;;;5014448;28;20279;-83
2021/11/12 10:16:51;;;;;;;3.60;2.97;;;15.10;86.40;;;;;;5013226;28;20231;-82
2021/11/12 10:19:01;;;;;;;1.87;1.77;;;15.20;85.90;;;;;;4994790;28;20287;-83
2021/11/12 10:21:31;;;;;;;4.87;4.47;;;15.40;85.10;;;;;;5008628;28;20208;-82
2021/11/12 10:24:06;;;;;;;8.93;3.33;;;15.40;84.00;;;;;;4989774;28;20228;-83
2021/11/12 10:26:36;;;;;;;3.60;2.40;;;15.60;84.70;;;;;;4992570;28;20234;-83
2021/11/12 10:29:14;;;;;;;4.93;3.53;;;15.70;83.60;;;;;;4997040;28;20235;-83
2021/11/12 10:31:55;;;;;;;4.90;4.40;;;15.90;83.30;;;;;;4999696;28;20256;-82
2021/11/12 10:34:44;;;;;;;4.33;3.60;;;16.10;83.00;;;;;;5000254;28;20226;-82
2021/11/12 10:37:24;;;;;;;6.83;4.73;;;16.40;82.50;;;;;;4994157;28;20239;-82
2021/11/12 10:39:56;;;;;;;5.57;3.03;;;16.70;80.90;;;;;;5014629;28;20216;-83
2021/11/12 10:42:28;;;;;;;2.53;2.33;;;16.70;79.60;;;;;;5012501;28;20208;-83
2021/11/12 10:44:59;;;;;;;5.60;3.67;;;16.70;79.90;;;;;;4987861;28;20641;-82
2021/11/12 10:47:29;;;;;;;6.17;3.97;;;16.70;79.90;;;;;;5012480;28;20234;-83
2021/11/12 10:50:03;;;;;;;3.63;2.40;;;16.70;79.40;;;;;;4985627;28;20248;-83
2021/11/12 10:52:33;;;;;;;1.90;1.80;;;16.90;79.10;;;;;;4986673;28;20216;-83
2021/11/12 10:55:17;;;;;;;4.03;1.50;;;16.90;78.90;;;;;;4978850;28;20288;-84
2021/11/12 10:57:53;;;;;;;5.03;4.33;;;16.80;78.80;;;;;;4984259;28;20237;-83
2021/11/12 11:00:35;;;;;;;32.80;4.00;;;16.70;79.10;;;;;;4985772;28;20215;-84
2021/11/12 11:03:07;;;;;;;3.13;2.90;;;16.70;79.50;;;;;;4987014;28;20201;-83
2021/11/12 11:05:44;;;;;;;11.60;4.50;;;16.70;79.60;;;;;;4988829;28;20217;-84
2021/11/12 11:08:15;;;;;;;4.33;3.73;;;16.90;79.30;;;;;;4988553;28;20216;-84
2021/11/12 11:10:44;;;;;;;7.57;3.97;;;17.10;78.60;;;;;;4979135;28;20225;-83
2021/11/12 11:13:26;;;;;;;8.53;4.53;;;17.30;78.20;;;;;;4960803;28;20580;-85
2021/11/12 11:15:59;;;;;;;6.17;4.83;;;17.40;78.10;;;;;;4981371;28;20236;-84
2021/11/12 11:18:43;;;;;;;4.60;4.23;;;17.50;77.60;;;;;;4987307;28;20216;-84
2021/11/12 11:21:15;;;;;;;3.40;2.57;;;17.50;77.40;;;;;;4991789;28;20239;-85
2021/11/12 11:23:48;;;;;;;4.73;4.17;;;17.60;76.40;;;;;;4976283;28;20216;-85
2021/11/12 11:26:22;;;;;;;5.37;3.53;;;17.70;76.60;;;;;;4975521;28;20213;-85
2021/11/12 11:28:51;;;;;;;2.53;2.33;;;17.70;76.20;;;;;;4978529;28;20638;-83
2021/11/12 11:31:25;;;;;;;3.33;3.03;;;17.60;75.00;;;;;;4964025;28;20210;-84
2021/11/12 11:33:54;;;;;;;4.90;2.63;;;17.50;75.40;;;;;;4985776;28;20220;-84
2021/11/12 11:36:24;;;;;;;2.33;2.23;;;17.40;75.80;;;;;;4974212;28;20260;-84
2021/11/12 11:38:54;;;;;;;4.83;4.40;;;17.40;75.80;;;;;;4968153;28;20610;-84
2021/11/12 11:41:24;;;;;;;4.43;3.40;;;17.60;76.10;;;;;;4987923;28;20217;-84
2021/11/12 11:43:52;;;;;;;2.70;2.60;;;17.80;76.10;;;;;;4987152;28;20213;-83
2021/11/12 11:46:27;;;;;;;4.77;3.63;;;18.00;75.40;;;;;;4993190;28;20634;-84
2021/11/12 11:48:57;;;;;;;2.53;2.27;;;18.10;75.00;;;;;;4996218;28;20263;-85
2021/11/12 11:51:30;;;;;;;3.27;2.20;;;18.20;74.60;;;;;;5002448;28;20220;-84
2021/11/12 11:54:15;;;;;;;3.37;3.17;;;18.20;73.80;;;;;;4976009;28;20240;-84
2021/11/12 11:56:56;;;;;;;2.47;2.37;;;18.10;73.30;;;;;;4996171;28;20244;-83
2021/11/12 11:59:30;;;;;;;35.27;3.10;;;18.20;73.80;;;;;;4993277;28;20640;-84
2021/11/12 12:02:10;;;;;;;2.50;2.37;;;18.20;73.30;;;;;;5007546;28;20291;-84
2021/11/12 12:04:38;;;;;;;2.50;2.27;;;18.20;73.60;;;;;;5004158;28;20280;-84
2021/11/12 12:07:21;;;;;;;7.13;5.77;;;18.20;73.00;;;;;;5003349;28;20216;-84
2021/11/12 12:10:00;;;;;;;1.53;1.53;;;18.20;72.90;;;;;;4992188;28;20220;-85
2021/11/12 12:12:30;;;;;;;4.97;2.57;;;18.20;73.30;;;;;;4991312;28;20609;-84
2021/11/12 12:15:04;;;;;;;2.20;2.00;;;18.20;73.50;;;;;;4995458;28;20216;-84
2021/11/12 12:17:32;;;;;;;3.47;2.53;;;18.30;73.80;;;;;;4991809;28;20231;-85
2021/11/12 12:20:16;;;;;;;1.93;1.87;;;18.30;73.90;;;;;;4998357;28;20208;-84
2021/11/12 13:25:53;;;;;;;5.77;3.90;;;17.70;74.20;;;;;;5007254;28;20213;-84
2021/11/12 13:28:31;;;;;;;4.30;2.83;;;17.70;74.30;;;;;;4991896;28;20240;-85
2021/11/12 13:31:03;;;;;;;3.30;3.10;;;17.70;74.30;;;;;;4981881;28;20542;-84
2021/11/12 13:33:44;;;;;;;4.47;3.43;;;17.70;74.30;;;;;;5003260;28;20204;-84
2021/11/12 13:36:20;;;;;;;4.43;3.30;;;17.70;74.50;;;;;;4990418;28;20613;-84
2021/11/12 13:39:05;;;;;;;7.13;3.90;;;17.70;74.50;;;;;;4998359;28;20270;-84
2021/11/12 13:41:42;;;;;;;2.33;2.17;;;17.60;74.50;;;;;;4987827;28;20212;-84
2021/11/12 13:44:11;;;;;;;4.33;3.13;;;17.60;74.40;;;;;;5000214;28;20212;-84
2021/11/12 13:46:54;;;;;;;4.90;4.27;;;17.50;74.60;;;;;;4994774;28;20216;-84
2021/11/12 13:49:32;;;;;;;7.87;3.10;;;17.50;74.80;;;;;;4990678;28;20248;-85
2021/11/12 13:52:17;;;;;;;4.57;3.10;;;17.40;74.80;;;;;;4991921;28;20295;-83
2021/11/12 13:55:01;;;;;;;5.53;4.00;;;17.40;74.90;;;;;;4984040;28;20208;-84
2021/11/12 13:57:29;;;;;;;10.77;4.07;;;17.30;75.10;;;;;;4992396;28;20583;-84
2021/11/12 14:00:10;;;;;;;1.97;1.87;;;17.30;75.30;;;;;;4993306;28;20215;-84
2021/11/12 14:03:02;;;;;;;2.60;2.10;;;17.20;75.40;;;;;;4998243;28;20302;-84
2021/11/12 14:05:31;;;;;;;7.70;4.03;;;17.20;75.50;;;;;;5000324;28;20208;-84
2021/11/12 14:08:04;;;;;;;3.00;2.80;;;17.10;75.70;;;;;;5005474;28;20230;-84
2021/11/12 14:10:38;;;;;;;6.00;3.63;;;17.10;75.90;;;;;;4985834;28;20303;-84
2021/11/12 14:13:07;;;;;;;2.87;2.67;;;17.10;76.00;;;;;;5009045;28;20219;-84
2021/11/12 14:15:44;;;;;;;2.90;2.50;;;17.00;76.00;;;;;;5011310;28;20223;-84
2021/11/12 14:18:25;;;;;;;4.77;4.00;;;17.00;76.20;;;;;;5006807;28;20247;-84
2021/11/12 14:24:14;;;;;;;3.40;3.07;;;16.90;76.20;;;;;;5008180;28;20656;-84
2021/11/12 14:27:04;;;;;;;13.90;2.30;;;16.90;76.30;;;;;;4987441;28;20247;-84
2021/11/12 14:47:26;;;;;;;3.33;3.13;;;16.70;78.00;;;;;;5011745;28;20228;-83
2021/11/12 14:49:45;;;;;;;12.37;5.60;;;16.60;78.30;;;;;;5006990;28;20252;-84
2021/11/12 14:52:16;;;;;;;4.37;3.30;;;16.50;78.50;;;;;;4994187;28;20654;-84
2021/11/12 14:54:48;;;;;;;6.33;3.50;;;16.50;78.70;;;;;;5004934;28;20652;-84
2021/11/12 15:00:04;;;;;;;5.83;3.37;;;16.40;79.50;;;;;;5003739;28;20251;-83
2021/11/12 15:02:34;;;;;;;5.40;4.33;;;16.30;79.60;;;;;;5004878;28;20216;-83
2021/11/12 15:05:06;;;;;;;2.80;2.70;;;16.30;80.20;;;;;;4992643;28;20227;-84
2021/11/12 15:07:42;;;;;;;3.73;3.43;;;16.20;80.50;;;;;;5019250;28;20211;-83
2021/11/12 15:10:22;;;;;;;3.67;3.40;;;16.10;80.60;;;;;;5006001;28;20215;-83
2021/11/12 15:12:55;;;;;;;8.80;3.13;;;16.10;80.80;;;;;;5007823;28;20310;-83
2021/11/12 15:15:23;;;;;;;4.73;4.10;;;16.00;81.00;;;;;;4991281;28;20216;-83
2021/11/12 15:17:54;;;;;;;9.23;5.37;;;15.90;81.20;;;;;;5003033;28;20250;-83
2021/11/12 15:20:22;;;;;;;9.50;3.43;;;15.90;81.50;;;;;;5015539;28;20208;-83
2021/11/12 15:23:16;;;;;;;4.73;4.10;;;15.80;81.90;;;;;;5006251;28;20593;-83
2021/11/12 15:26:12;;;;;;;2.80;2.57;;;15.70;82.10;;;;;;5011279;28;20216;-83
2021/11/12 15:33:49;;;;;;;5.83;3.83;;;15.50;83.00;;;;;;5007716;28;20215;-83
2021/11/12 15:36:17;;;;;;;9.67;6.00;;;15.40;83.10;;;;;;4993490;28;20216;-83
2021/11/12 15:38:48;;;;;;;6.23;4.17;;;15.40;83.40;;;;;;5001066;28;20211;-83
2021/11/12 15:44:18;;;;;;;4.50;3.47;;;15.20;83.70;;;;;;5013183;28;20693;-83
2021/11/12 15:47:02;;;;;;;13.83;3.83;;;15.20;83.90;;;;;;4991185;28;20245;-83
2021/11/12 15:49:30;;;;;;;6.87;4.00;;;15.10;84.10;;;;;;4987830;28;20252;-83
2021/11/12 15:52:01;;;;;;;6.77;4.40;;;15.10;84.50;;;;;;4993427;28;20212;-83
2021/11/12 16:13:16;;;;;;;5.23;3.83;;;14.60;85.70;;;;;;5010221;28;20270;-83
2021/11/12 16:15:53;;;;;;;3.47;3.23;;;14.50;85.90;;;;;;4989339;28;20544;-83
2021/11/12 16:26:03;;;;;;;4.97;2.77;;;14.30;86.70;;;;;;5001720;28;20292;-83
2021/11/12 16:28:39;;;;;;;4.07;3.63;;;14.20;87.00;;;;;;5006095;28;20230;-83
2021/11/12 16:31:07;;;;;;;6.47;3.13;;;14.10;87.20;;;;;;5018605;28;20222;-84
2021/11/12 16:33:35;;;;;;;3.50;3.23;;;14.00;87.40;;;;;;4990837;28;20220;-84
2021/11/12 16:36:06;;;;;;;9.43;5.07;;;14.00;87.50;;;;;;4992108;28;20239;-84
2021/11/12 16:38:35;;;;;;;7.37;4.07;;;13.90;87.60;;;;;;4985450;28;20235;-84
2021/11/12 16:54:29;;;;;;;10.37;3.93;;;13.50;88.80;;;;;;5013765;28;20212;-83
2021/11/12 16:57:03;;;;;;;1.97;1.87;;;13.50;89.10;;;;;;5013555;28;20228;-83
2021/11/12 16:59:45;;;;;;;3.70;3.37;;;13.40;89.40;;;;;;4992088;28;20219;-83
2021/11/12 17:02:39;;;;;;;2.80;2.27;;;13.40;89.60;;;;;;4988401;28;20212;-83
2021/11/12 17:05:13;;;;;;;8.43;5.00;;;13.40;89.80;;;;;;4992143;28;20278;-83
2021/11/12 17:10:31;;;;;;;7.20;3.33;;;13.30;90.30;;;;;;5008587;28;20215;-83
2021/11/12 17:13:31;;;;;;;9.00;4.53;;;13.30;90.20;;;;;;4998346;28;20214;-83
2021/11/12 17:48:47;;;;;;;3.17;2.80;;;13.00;91.00;;;;;;4964247;28;20240;-83
2021/11/12 17:51:32;;;;;;;2.30;2.20;;;12.90;91.00;;;;;;4969700;28;20248;-83
2021/11/12 18:03:01;;;;;;;12.63;6.23;;;12.70;91.70;;;;;;4993266;28;20231;-83
2021/11/12 21:46:19;;;;;;;2.13;1.93;;;10.40;92.30;;;;;;5009417;28;20645;-83
2021/11/12 21:48:57;;;;;;;3.33;3.13;;;10.40;92.20;;;;;;4983881;28;20248;-83
2021/11/12 21:51:28;;;;;;;5.63;4.83;;;10.40;92.10;;;;;;4979340;28;20212;-83
2021/11/12 21:53:59;;;;;;;1.97;1.87;;;10.30;92.20;;;;;;4976020;28;20232;-83
2021/11/12 21:56:27;;;;;;;2.07;1.87;;;10.30;92.20;;;;;;4978356;28;20224;-84
2021/11/12 21:58:55;;;;;;;4.63;2.80;;;10.20;92.20;;;;;;4977626;28;20291;-83
2021/11/12 22:01:24;;;;;;;4.83;4.43;;;10.20;92.20;;;;;;4982650;28;20216;-84
2021/11/12 22:03:55;;;;;;;4.13;3.83;;;10.20;92.20;;;;;;4992611;28;20709;-84
2021/11/12 22:06:22;;;;;;;4.17;3.57;;;10.20;92.10;;;;;;4989849;28;20231;-83
2021/11/12 22:08:50;;;;;;;4.10;2.77;;;10.10;92.10;;;;;;4984285;28;20217;-83
2021/11/12 22:11:18;;;;;;;3.40;2.57;;;10.00;92.30;;;;;;4990662;28;20725;-83
2021/11/12 22:13:46;;;;;;;4.00;3.67;;;10.00;92.40;;;;;;4990708;28;20222;-83
2021/11/12 22:16:15;;;;;;;5.73;3.97;;;10.00;92.50;;;;;;4986694;28;20231;-83
2021/11/12 22:18:44;;;;;;;5.47;4.10;;;10.00;92.50;;;;;;4983579;28;20235;-83
2021/11/12 22:21:12;;;;;;;3.73;2.23;;;10.10;92.70;;;;;;4984655;28;20208;-83
2021/11/12 22:23:39;;;;;;;3.50;2.60;;;10.10;92.70;;;;;;4986812;28;20218;-83
2021/11/12 22:26:12;;;;;;;3.07;2.13;;;10.10;92.70;;;;;;4987830;28;20263;-83
2021/11/12 22:28:39;;;;;;;6.03;4.53;;;10.10;92.70;;;;;;4977018;28;20240;-83
2021/11/12 22:31:06;;;;;;;11.90;4.87;;;10.10;92.70;;;;;;4988452;28;20209;-83
2021/11/12 22:33:34;;;;;;;3.03;2.83;;;10.10;92.70;;;;;;4993595;28;20216;-83
2021/11/12 22:36:01;;;;;;;2.87;2.63;;;10.10;92.70;;;;;;4993456;28;20223;-83
2021/11/12 22:38:29;;;;;;;7.73;2.27;;;10.10;92.70;;;;;;4995214;28;20261;-84
2021/11/12 22:40:56;;;;;;;4.37;2.50;;;10.10;92.80;;;;;;4977034;28;20594;-83
2021/11/12 22:43:25;;;;;;;2.40;1.83;;;10.10;92.80;;;;;;4973132;28;20205;-83
2021/11/12 22:45:53;;;;;;;0.90;0.90;;;10.10;92.80;;;;;;4981420;28;20639;-83
2021/11/12 22:48:21;;;;;;;3.63;3.33;;;10.20;92.80;;;;;;4991556;28;20240;-83
2021/11/12 22:50:50;;;;;;;1.73;1.63;;;10.10;92.70;;;;;;4985150;28;20247;-83
2021/11/12 22:53:18;;;;;;;2.90;2.70;;;10.10;92.80;;;;;;4978513;28;20255;-83
2021/11/12 22:55:46;;;;;;;7.70;1.37;;;10.10;92.80;;;;;;4973607;28;20693;-83
2021/11/12 22:58:13;;;;;;;2.03;1.70;;;10.10;92.80;;;;;;4986219;28;20216;-83
2021/11/12 23:00:49;;;;;;;3.70;2.30;;;10.10;92.80;;;;;;4993201;28;20256;-83
2021/11/12 23:03:17;;;;;;;3.57;3.27;;;10.10;92.90;;;;;;4993812;28;20223;-83
2021/11/12 23:05:45;;;;;;;3.03;2.50;;;10.10;92.80;;;;;;4990427;28;20206;-83
2021/11/12 23:08:12;;;;;;;1.73;1.47;;;10.10;92.90;;;;;;4991474;28;20213;-83
2021/11/12 23:10:40;;;;;;;2.27;2.03;;;10.10;92.90;;;;;;4970638;28;20208;-83
2021/11/12 23:13:07;;;;;;;4.50;3.90;;;10.10;92.90;;;;;;4980386;28;20205;-83
2021/11/12 23:15:35;;;;;;;4.10;1.77;;;10.10;92.80;;;;;;4986998;28;20284;-83
2021/11/12 23:18:03;;;;;;;2.37;2.27;;;10.10;92.90;;;;;;4979036;28;20304;-83
2021/11/12 23:20:30;;;;;;;6.60;2.13;;;10.10;92.90;;;;;;4992511;28;20248;-82
2021/11/12 23:22:58;;;;;;;3.00;2.83;;;10.00;92.90;;;;;;4968050;28;20209;-83
2021/11/12 23:25:25;;;;;;;4.07;3.33;;;10.00;92.90;;;;;;4983963;28;20308;-84
2021/11/12 23:27:52;;;;;;;1.97;1.87;;;10.00;93.00;;;;;;4984854;28;20232;-82
2021/11/12 23:30:20;;;;;;;2.40;2.20;;;10.00;93.00;;;;;;4984840;28;20225;-82
2021/11/12 23:32:47;;;;;;;2.43;2.33;;;10.00;93.00;;;;;;4976884;28;20658;-83
2021/11/12 23:35:15;;;;;;;2.40;2.30;;;10.00;93.00;;;;;;4987934;28;20213;-82
2021/11/12 23:37:42;;;;;;;2.03;1.93;;;10.00;93.00;;;;;;4998745;28;20213;-83
2021/11/12 23:40:10;;;;;;;4.17;2.70;;;10.10;93.00;;;;;;4985612;28;20244;-82
2021/11/12 23:42:38;;;;;;;1.73;1.63;;;10.10;93.00;;;;;;4971000;28;20644;-82